createdAt,value
2023-04-03T00:01:39.617Z,5.10
2023-04-03T00:04:43.066Z,5.10
2023-04-03T00:07:46.107Z,5.00
2023-04-03T00:10:49.200Z,5.00
2023-04-03T00:13:53.516Z,5.00
2023-04-03T00:16:56.843Z,4.90
2023-04-03T00:20:00.426Z,4.90
2023-04-03T00:23:03.915Z,4.80
2023-04-03T00:26:07.007Z,4.80
2023-04-03T00:29:10.343Z,4.80
2023-04-03T00:32:13.700Z,4.70
2023-04-03T00:35:19.863Z,4.70
2023-04-03T00:38:23.259Z,4.60
2023-04-03T00:41:26.859Z,4.50
2023-04-03T00:44:30.055Z,4.50
2023-04-03T00:47:33.323Z,4.40
2023-04-03T00:50:40.056Z,4.40
2023-04-03T00:53:54.787Z,4.40
2023-04-03T00:56:59.148Z,4.40
2023-04-03T01:00:13.875Z,4.40
2023-04-03T01:03:16.759Z,4.40
2023-04-03T01:06:26.501Z,4.50
2023-04-03T01:09:30.934Z,4.60
2023-04-03T01:12:46.868Z,4.70
2023-04-03T01:15:50.880Z,4.80
2023-04-03T01:18:54.228Z,4.90
2023-04-03T01:22:21.176Z,4.90
2023-04-03T01:25:25.196Z,4.90
2023-04-03T01:28:32.503Z,5.00
2023-04-03T01:31:50.207Z,5.00
2023-04-03T01:34:58.525Z,5.10
2023-04-03T01:38:01.721Z,5.10
2023-04-03T01:41:04.621Z,5.10
2023-04-03T01:44:08.107Z,5.10
2023-04-03T01:47:11.306Z,5.10
2023-04-03T01:50:14.607Z,5.20
2023-04-03T01:53:17.579Z,5.20
2023-04-03T01:56:21.597Z,5.30
2023-04-03T01:59:24.785Z,5.20
2023-04-03T02:02:27.982Z,5.20
2023-04-03T02:05:31.685Z,5.20
2023-04-03T02:08:35.081Z,5.20
2023-04-03T02:11:38.377Z,5.20
2023-04-03T02:14:41.775Z,5.20
2023-04-03T02:17:45.707Z,5.10
2023-04-03T02:20:49.178Z,5.10
2023-04-03T02:23:52.371Z,5.10
2023-04-03T02:26:55.361Z,5.20
2023-04-03T02:29:58.860Z,5.20
2023-04-03T02:33:01.908Z,5.10
2023-04-03T02:36:09.143Z,5.10
2023-04-03T02:39:12.640Z,5.10
2023-04-03T02:42:16.136Z,5.20
2023-04-03T02:45:19.023Z,5.10
2023-04-03T02:48:22.015Z,5.10
2023-04-03T02:51:25.313Z,5.00
2023-04-03T02:54:31.984Z,5.00
2023-04-03T02:57:34.929Z,5.00
2023-04-03T03:00:38.704Z,5.00
2023-04-03T03:03:42.280Z,5.00
2023-04-03T03:06:45.169Z,5.00
2023-04-03T03:09:48.696Z,4.90
2023-04-03T03:12:52.178Z,4.90
2023-04-03T03:15:55.381Z,4.90
2023-04-03T03:18:59.139Z,4.90
2023-04-03T03:22:02.354Z,4.90
2023-04-03T03:25:05.550Z,4.90
2023-04-03T03:28:09.170Z,4.90
2023-04-03T03:31:13.746Z,4.90
2023-04-03T03:34:17.302Z,4.90
2023-04-03T03:37:20.063Z,4.90
2023-04-03T03:40:23.975Z,4.90
2023-04-03T03:43:26.862Z,4.90
2023-04-03T03:46:29.993Z,4.90
2023-04-03T03:49:33.245Z,4.90
2023-04-03T03:52:36.962Z,5.00
2023-04-03T03:55:40.055Z,5.00
2023-04-03T03:58:43.031Z,5.00
2023-04-03T04:01:46.255Z,4.90
2023-04-03T04:04:50.656Z,4.80
2023-04-03T04:07:53.636Z,4.80
2023-04-03T04:10:56.833Z,4.70
2023-04-03T04:14:00.021Z,4.60
2023-04-03T04:17:03.759Z,4.50
2023-04-03T04:20:07.226Z,4.40
2023-04-03T04:23:10.425Z,4.30
2023-04-03T04:26:13.305Z,4.30
2023-04-03T04:29:16.704Z,4.20
2023-04-03T04:32:19.808Z,4.10
2023-04-03T04:35:23.255Z,4.00
2023-04-03T04:38:26.594Z,4.00
2023-04-03T04:41:29.467Z,3.90
2023-04-03T04:44:32.666Z,3.90
2023-04-03T04:47:35.793Z,3.80
2023-04-03T04:50:38.845Z,3.80
2023-04-03T04:53:42.026Z,3.70
2023-04-03T04:56:44.829Z,3.70
2023-04-03T04:59:48.324Z,3.70
2023-04-03T05:02:51.551Z,3.80
2023-04-03T05:05:54.827Z,3.80
2023-04-03T05:08:58.107Z,3.90
2023-04-03T05:12:01.117Z,3.90
2023-04-03T05:15:04.300Z,3.90
2023-04-03T05:18:08.038Z,4.00
2023-04-03T05:21:11.188Z,4.00
2023-04-03T05:24:14.791Z,4.10
2023-04-03T05:27:18.293Z,4.20
2023-04-03T05:30:21.591Z,4.30
2023-04-03T05:33:25.497Z,4.40
2023-04-03T05:36:28.578Z,4.40
2023-04-03T05:39:33.008Z,4.50
2023-04-03T05:42:36.514Z,4.50
2023-04-03T05:45:39.601Z,4.50
2023-04-03T05:48:43.199Z,4.60
2023-04-03T05:51:46.598Z,4.60
2023-04-03T05:54:50.097Z,4.70
2023-04-03T05:57:53.294Z,4.80
2023-04-03T06:00:56.581Z,4.80
2023-04-03T06:04:00.390Z,4.90
2023-04-03T06:07:03.995Z,4.90
2023-04-03T06:10:08.336Z,5.00
2023-04-03T06:13:11.815Z,5.30
2023-04-03T06:16:16.856Z,5.40
2023-04-03T06:19:20.351Z,5.60
2023-04-03T06:22:23.534Z,6.00
2023-04-03T06:25:26.431Z,6.20
2023-04-03T06:28:29.622Z,6.40
2023-04-03T06:31:32.850Z,6.80
2023-04-03T06:34:36.722Z,7.00
2023-04-03T06:37:39.815Z,7.30
2023-04-03T06:40:43.211Z,7.60
2023-04-03T06:43:46.816Z,8.00
2023-04-03T06:46:49.905Z,8.20
2023-04-03T06:49:53.096Z,8.30
2023-04-03T06:52:58.367Z,8.70
2023-04-03T06:56:01.637Z,8.80
2023-04-03T06:59:05.140Z,8.80
2023-04-03T07:02:08.287Z,9.10
2023-04-03T07:05:11.731Z,8.90
2023-04-03T07:08:14.526Z,9.10
2023-04-03T07:11:18.443Z,9.50
2023-04-03T07:14:22.641Z,9.80
2023-04-03T07:17:26.756Z,9.90
2023-04-03T07:20:29.947Z,9.70
2023-04-03T07:23:33.448Z,10.20
2023-04-03T07:26:36.745Z,10.30
2023-04-03T07:29:40.251Z,11.20
2023-04-03T07:32:43.600Z,11.50
2023-04-03T07:35:47.357Z,11.50
2023-04-03T07:38:50.663Z,11.60
2023-04-03T07:41:53.844Z,11.50
2023-04-03T07:44:57.956Z,11.90
2023-04-03T07:48:01.498Z,10.90
2023-04-03T07:51:06.307Z,10.30
2023-04-03T07:54:09.280Z,9.70
2023-04-03T07:57:13.145Z,9.10
2023-04-03T08:00:18.933Z,8.50
2023-04-03T08:03:22.462Z,8.10
2023-04-03T08:06:37.521Z,7.80
2023-04-03T08:09:46.340Z,7.80
2023-04-03T08:12:49.974Z,7.70
2023-04-03T08:15:53.544Z,7.80
2023-04-03T08:18:57.044Z,7.80
2023-04-03T08:22:01.891Z,7.60
2023-04-03T08:25:05.231Z,7.50
2023-04-03T08:28:09.598Z,7.30
2023-04-03T08:31:16.812Z,7.40
2023-04-03T08:34:21.204Z,7.50
2023-04-03T08:37:24.399Z,7.80
2023-04-03T08:40:27.389Z,7.80
2023-04-03T08:43:39.704Z,7.80
2023-04-03T08:46:51.705Z,7.60
2023-04-03T08:50:23.669Z,7.50
2023-04-03T08:53:33.924Z,7.40
2023-04-03T08:56:37.528Z,7.40
2023-04-03T08:59:42.052Z,7.30
2023-04-03T09:02:50.681Z,7.10
2023-04-03T09:06:11.786Z,7.00
2023-04-03T09:09:16.923Z,7.10
2023-04-03T09:12:27.085Z,7.20
2023-04-03T09:15:38.477Z,7.30
2023-04-03T09:18:50.462Z,7.30
2023-04-03T09:21:54.475Z,7.50
2023-04-03T09:25:20.098Z,7.50
2023-04-03T09:28:23.186Z,7.50
2023-04-03T09:31:41.891Z,7.60
2023-04-03T09:34:46.468Z,8.30
2023-04-03T09:38:10.553Z,9.20
2023-04-03T09:41:20.295Z,9.20
2023-04-03T09:44:31.698Z,8.70
2023-04-03T09:47:37.756Z,8.40
2023-04-03T09:51:05.615Z,8.10
2023-04-03T09:54:33.896Z,7.90
2023-04-03T09:57:37.423Z,7.70
2023-04-03T10:00:42.061Z,7.70
2023-04-03T10:03:47.889Z,7.70
2023-04-03T10:06:54.145Z,7.80
2023-04-03T10:10:21.580Z,8.90
2023-04-03T10:13:24.697Z,10.10
2023-04-03T10:16:35.220Z,10.80
2023-04-03T10:20:04.877Z,10.30
2023-04-03T10:23:36.947Z,9.60
2023-04-03T10:27:19.971Z,9.20
2023-04-03T10:30:44.585Z,9.00
2023-04-03T10:34:06.182Z,9.10
2023-04-03T10:37:11.945Z,9.00
2023-04-03T10:40:25.110Z,8.70
2023-04-03T10:43:34.920Z,8.70
2023-04-03T10:47:00.955Z,9.10
2023-04-03T10:50:07.730Z,10.10
2023-04-03T10:53:36.733Z,12.60
2023-04-03T10:57:04.513Z,12.70
2023-04-03T11:00:38.625Z,11.90
2023-04-03T11:03:47.621Z,10.60
2023-04-03T11:07:01.802Z,9.70
2023-04-03T11:10:28.332Z,9.10
2023-04-03T11:13:45.459Z,9.00
2023-04-03T11:16:54.416Z,9.10
2023-04-03T11:20:08.236Z,9.00
2023-04-03T11:23:22.894Z,9.00
2023-04-03T11:26:30.802Z,9.10
2023-04-03T11:29:39.321Z,9.30
2023-04-03T11:33:00.046Z,9.70
2023-04-03T11:36:22.852Z,9.80
2023-04-03T11:39:35.280Z,9.40
2023-04-03T11:42:48.155Z,9.30
2023-04-03T11:46:02.221Z,9.20
2023-04-03T11:49:05.547Z,9.50
2023-04-03T11:52:42.473Z,10.00
2023-04-03T11:55:55.766Z,9.80
2023-04-03T11:59:13.605Z,9.60
2023-04-03T12:02:54.424Z,9.90
2023-04-03T12:06:14.766Z,9.70
2023-04-03T12:09:32.091Z,9.20
2023-04-03T12:12:42.358Z,9.30
2023-04-03T12:15:54.043Z,9.30
2023-04-03T12:19:04.083Z,9.50
2023-04-03T12:22:10.377Z,9.80
2023-04-03T12:25:51.043Z,9.70
2023-04-03T12:28:57.048Z,9.60
2023-04-03T12:32:27.985Z,9.80
2023-04-03T12:35:46.231Z,10.30
2023-04-03T12:39:17.034Z,10.40
2023-04-03T12:42:35.376Z,9.90
2023-04-03T12:46:00.575Z,10.40
2023-04-03T12:49:14.226Z,10.30
2023-04-03T12:52:47.029Z,9.90
2023-04-03T12:55:54.813Z,9.80
2023-04-03T12:59:20.231Z,9.60
2023-04-03T13:02:29.512Z,9.50
2023-04-03T13:05:36.564Z,9.70
2023-04-03T13:08:54.083Z,11.50
2023-04-03T13:12:04.542Z,11.80
2023-04-03T13:15:21.981Z,12.60
2023-04-03T13:18:34.689Z,13.50
2023-04-03T13:21:37.892Z,12.40
2023-04-03T13:24:41.594Z,11.90
2023-04-03T13:27:45.804Z,12.50
2023-04-03T13:31:06.414Z,13.00
2023-04-03T13:34:13.907Z,12.20
2023-04-03T13:37:32.763Z,12.00
2023-04-03T13:44:23.486Z,11.20
2023-04-03T13:47:26.719Z,11.90
2023-04-03T13:50:30.695Z,12.10
2023-04-03T13:53:35.125Z,11.90
2023-04-03T13:56:40.154Z,11.70
2023-04-03T13:59:44.505Z,11.50
2023-04-03T14:02:50.087Z,12.40
2023-04-03T14:05:53.678Z,13.20
2023-04-03T14:08:56.509Z,14.00
2023-04-03T14:12:11.337Z,14.00
2023-04-03T14:15:31.670Z,13.10
2023-04-03T14:18:34.970Z,12.30
2023-04-03T14:21:38.163Z,13.10
2023-04-03T14:24:41.655Z,13.30
2023-04-03T14:27:47.840Z,12.70
2023-04-03T14:30:52.865Z,13.00
2023-04-03T14:33:55.965Z,12.60
2023-04-03T14:36:59.800Z,11.10
2023-04-03T14:40:06.338Z,9.80
2023-04-03T14:43:13.731Z,9.40
2023-04-03T14:46:25.671Z,10.00
2023-04-03T14:49:30.666Z,9.70
2023-04-03T14:52:37.133Z,8.90
2023-04-03T14:55:40.428Z,8.60
2023-04-03T14:58:44.135Z,8.30
2023-04-03T15:01:47.653Z,8.10
2023-04-03T15:04:52.184Z,8.00
2023-04-03T15:07:57.813Z,8.60
2023-04-03T15:11:02.149Z,10.60
2023-04-03T15:14:05.326Z,12.20
2023-04-03T15:17:21.624Z,12.90
2023-04-03T15:20:28.302Z,13.00
2023-04-03T15:23:31.499Z,12.70
2023-04-03T15:26:34.899Z,12.80
2023-04-03T15:29:38.499Z,11.90
2023-04-03T15:32:42.184Z,11.40
2023-04-03T15:35:45.414Z,11.30
2023-04-03T15:38:48.485Z,11.60
2023-04-03T15:41:53.336Z,11.60
2023-04-03T15:44:56.830Z,11.20
2023-04-03T15:48:00.491Z,10.60
2023-04-03T15:51:03.717Z,10.40
2023-04-03T15:54:07.116Z,10.00
2023-04-03T15:57:10.319Z,10.10
2023-04-03T16:00:14.630Z,10.00
2023-04-03T16:03:21.466Z,9.70
2023-04-03T16:06:26.135Z,9.60
2023-04-03T16:09:29.638Z,10.10
2023-04-03T16:12:32.623Z,9.20
2023-04-03T16:15:37.691Z,8.70
2023-04-03T16:18:40.852Z,8.30
2023-04-03T16:21:43.843Z,8.00
2023-04-03T16:24:47.036Z,7.80
2023-04-03T16:27:50.230Z,7.50
2023-04-03T16:30:54.876Z,7.40
2023-04-03T16:33:58.061Z,7.30
2023-04-03T16:37:01.996Z,6.70
2023-04-03T16:40:07.404Z,6.20
2023-04-03T16:43:10.708Z,5.90
2023-04-03T16:46:13.709Z,5.70
2023-04-03T16:49:17.930Z,5.60
2023-04-03T16:52:21.643Z,5.50
2023-04-03T16:55:25.836Z,5.40
2023-04-03T16:58:28.922Z,5.30
2023-04-03T17:01:32.464Z,5.10
2023-04-03T17:04:35.919Z,5.10
2023-04-03T17:07:38.914Z,5.00
2023-04-03T17:10:43.643Z,4.90
2023-04-03T17:13:46.733Z,4.80
2023-04-03T17:16:49.777Z,4.70
2023-04-03T17:19:55.673Z,4.70
2023-04-03T17:22:59.788Z,4.70
2023-04-03T17:26:04.518Z,4.60
2023-04-03T17:29:08.733Z,4.60
2023-04-03T17:32:12.589Z,4.60
2023-04-03T17:35:15.944Z,4.60
2023-04-03T17:38:19.441Z,4.50
2023-04-03T17:41:22.838Z,4.60
2023-04-03T17:44:26.646Z,4.70
2023-04-03T17:47:30.477Z,4.70
2023-04-03T17:50:35.390Z,4.70
2023-04-03T17:53:39.707Z,4.70
2023-04-03T17:56:48.486Z,4.70
2023-04-03T17:59:54.799Z,4.80
2023-04-03T18:02:58.441Z,4.80
2023-04-03T18:06:05.088Z,4.70
2023-04-03T18:09:12.160Z,4.70
2023-04-03T18:12:16.071Z,4.70
2023-04-03T18:15:20.806Z,4.60
2023-04-03T18:18:24.606Z,4.60
2023-04-03T18:21:30.240Z,4.50
2023-04-03T18:24:36.423Z,4.50
2023-04-03T18:27:41.871Z,4.50
2023-04-03T18:30:46.493Z,4.50
2023-04-03T18:33:50.502Z,4.40
2023-04-03T18:36:54.631Z,4.30
2023-04-03T18:40:01.618Z,4.30
2023-04-03T18:43:06.225Z,4.10
2023-04-03T18:46:12.409Z,4.10
2023-04-03T18:49:19.066Z,4.00
2023-04-03T18:52:25.633Z,3.90
2023-04-03T18:55:29.646Z,3.80
2023-04-03T18:58:35.093Z,3.70
2023-04-03T19:01:39.313Z,3.70
2023-04-03T19:04:46.450Z,3.80
2023-04-03T19:07:51.737Z,3.70
2023-04-03T19:10:55.751Z,3.80
2023-04-03T19:14:14.264Z,3.80
2023-04-03T19:17:19.543Z,3.90
2023-04-03T19:20:25.121Z,3.90
2023-04-03T19:23:28.795Z,4.00
2023-04-03T19:26:33.116Z,3.90
2023-04-03T19:29:36.717Z,4.00
2023-04-03T19:32:41.159Z,3.90
2023-04-03T19:35:45.428Z,3.90
2023-04-03T19:38:50.479Z,3.90
2023-04-03T19:41:56.456Z,3.90
2023-04-03T19:45:03.744Z,3.90
2023-04-03T19:48:08.580Z,3.90
2023-04-03T19:51:12.482Z,3.90
2023-04-03T19:54:16.085Z,3.80
2023-04-03T19:57:19.791Z,3.80
2023-04-03T20:00:24.015Z,3.80
2023-04-03T20:03:28.840Z,3.70
2023-04-03T20:06:32.855Z,3.70
2023-04-03T20:09:37.170Z,3.70
2023-04-03T20:12:40.694Z,3.70
2023-04-03T20:15:46.842Z,3.70
2023-04-03T20:18:52.260Z,3.70
2023-04-03T20:21:56.394Z,3.60
2023-04-03T20:25:06.116Z,3.60
2023-04-03T20:28:11.418Z,3.60
2023-04-03T20:31:15.928Z,3.60
2023-04-03T20:34:19.403Z,3.60
2023-04-03T20:37:23.729Z,3.60
2023-04-03T20:40:27.964Z,3.50
2023-04-03T20:43:31.850Z,3.60
2023-04-03T20:46:51.576Z,3.50
2023-04-03T20:49:56.982Z,3.50
2023-04-03T20:53:00.884Z,3.50
2023-04-03T20:56:04.386Z,3.50
2023-04-03T20:59:07.907Z,3.40
2023-04-03T21:02:11.694Z,3.40
2023-04-03T21:05:17.233Z,3.40
2023-04-03T21:08:57.806Z,3.40
2023-04-03T21:12:38.379Z,3.30
2023-04-03T21:15:51.605Z,3.30
2023-04-03T21:18:59.820Z,3.30
2023-04-03T21:22:04.139Z,3.30
2023-04-03T21:25:07.536Z,3.30
2023-04-03T21:28:10.832Z,3.30
2023-04-03T21:31:15.329Z,3.20
2023-04-03T21:34:20.289Z,3.20
2023-04-03T21:37:24.312Z,3.20
2023-04-03T21:40:27.700Z,3.20
2023-04-03T21:43:30.909Z,3.20
2023-04-03T21:46:34.332Z,3.10
2023-04-03T21:49:37.896Z,3.10
2023-04-03T21:52:40.890Z,3.10
2023-04-03T21:55:54.325Z,3.10
2023-04-03T21:58:58.672Z,3.00
2023-04-03T22:02:02.781Z,3.00
2023-04-03T22:05:06.186Z,3.00
2023-04-03T22:08:09.348Z,3.00
2023-04-03T22:11:15.004Z,3.00
2023-04-03T22:14:18.390Z,2.90
2023-04-03T22:17:21.781Z,2.90
2023-04-03T22:20:24.873Z,3.00
2023-04-03T22:23:28.067Z,3.00
2023-04-03T22:26:31.461Z,3.00
2023-04-03T22:29:34.360Z,3.00
2023-04-03T22:32:38.886Z,3.00
2023-04-03T22:35:48.628Z,2.90
2023-04-03T22:38:52.130Z,2.90
2023-04-03T22:41:55.104Z,2.90
2023-04-03T22:44:58.710Z,2.90
2023-04-03T22:48:01.835Z,2.90
2023-04-03T22:51:09.700Z,2.90
2023-04-03T22:54:12.695Z,2.80
2023-04-03T22:57:15.571Z,2.80
2023-04-03T23:00:18.868Z,2.80
2023-04-03T23:03:23.805Z,2.80
2023-04-03T23:06:27.508Z,2.80
2023-04-03T23:09:30.701Z,2.80
2023-04-03T23:12:38.705Z,2.70
2023-04-03T23:15:42.010Z,2.70
2023-04-03T23:18:44.994Z,2.80
2023-04-03T23:21:48.491Z,2.80
2023-04-03T23:24:51.681Z,2.80
2023-04-03T23:27:54.983Z,2.70
2023-04-03T23:31:02.403Z,2.70
2023-04-03T23:34:06.076Z,2.70
2023-04-03T23:37:13.065Z,2.70
2023-04-03T23:40:16.557Z,2.60
2023-04-03T23:43:19.651Z,2.60
2023-04-03T23:46:22.555Z,2.70
2023-04-03T23:49:25.623Z,2.60
2023-04-03T23:52:29.337Z,2.60
2023-04-03T23:55:32.427Z,2.60
2023-04-03T23:58:35.715Z,2.50
